aviador You're here:

YBTL Decoded Metar

TOWNSVILLE in AUSTRALIA
Report Time2017-10-24 02:00:00
UTC Time2017-10-24 02:22:42
Flight Rules vfr VFR
Wind060° at 10 kt
W.Decomp.*RWY 07: 9.5 kt HW 3.1 kt LCW
RWY 01: 7.4 kt HW 6.7 kt RCW
W.Rank060° ranks 1
Current wind is below 060° avg. (11.9)
Visibility9999 m
Phenomena:N/A
Clouds:Few 028 Hf
Expected CloudBase > 2,800 ft AGL from Temp-Dew spread
CeilingNone
Temp28°C (ISA +13)
Dew Point21°C (66% RH)
Heat Index30.2°C
QNH1017 hPa
Density Alt1,713 ft
Elevation20 ft
Report Wrong Elevation
Raw Report
METAR YBTL 240200Z 06010KT 9999 FEW028 28/21 Q1017
NOSIG=

Extra information for YBTL:More info

Metar Taf Metar & Taf Last 4 Metars F.Rules Stats Wind Profile Meteogram Temp Stats Airport Information Weather charts Add Link Nearby VenuesMetar ALERT Operation Metar Decoded Social comments